createdAt,value
2023-06-30T00:00:18.505Z,20.93
2023-06-30T00:02:54.031Z,21.54
2023-06-30T00:05:23.004Z,21.63
2023-06-30T00:07:56.791Z,22.02
2023-06-30T00:10:26.173Z,22.25
2023-06-30T00:12:54.830Z,22.45
2023-06-30T00:15:23.568Z,21.91
2023-06-30T00:17:54.456Z,20.92
2023-06-30T00:20:25.535Z,20.11
2023-06-30T00:22:54.258Z,19.50
2023-06-30T00:25:23.214Z,18.78
2023-06-30T00:27:51.812Z,18.74
2023-06-30T00:30:20.538Z,18.40
2023-06-30T00:32:51.635Z,18.11
2023-06-30T00:35:20.972Z,18.01
2023-06-30T00:37:50.158Z,18.75
2023-06-30T00:40:19.211Z,19.53
2023-06-30T00:42:48.892Z,19.41
2023-06-30T00:45:17.621Z,20.15
2023-06-30T00:47:46.556Z,20.55
2023-06-30T00:50:16.576Z,21.46
2023-06-30T00:52:46.872Z,22.12
2023-06-30T00:55:17.310Z,22.52
2023-06-30T00:57:46.152Z,22.89
2023-06-30T01:00:15.760Z,23.12
2023-06-30T01:03:03.367Z,23.55
2023-06-30T01:05:47.925Z,23.67
2023-06-30T01:08:31.693Z,23.93
2023-06-30T01:11:01.075Z,24.05
2023-06-30T01:13:31.702Z,24.21
2023-06-30T01:16:00.962Z,24.48
2023-06-30T01:18:34.596Z,24.72
2023-06-30T01:21:07.085Z,24.79
2023-06-30T01:23:40.994Z,24.64
2023-06-30T01:26:09.823Z,24.47
2023-06-30T01:28:40.306Z,24.19
2023-06-30T01:31:11.166Z,24.04
2023-06-30T01:33:43.039Z,23.94
2023-06-30T01:36:11.937Z,23.94
2023-06-30T01:38:40.537Z,24.11
2023-06-30T01:41:10.582Z,23.94
2023-06-30T01:43:41.896Z,23.96
2023-06-30T01:46:11.542Z,23.78
2023-06-30T01:48:42.335Z,24.04
2023-06-30T01:51:14.461Z,23.96
2023-06-30T01:53:43.397Z,24.04
2023-06-30T01:56:14.018Z,24.06
2023-06-30T01:58:42.678Z,23.88
2023-06-30T02:01:11.390Z,23.85
2023-06-30T02:03:40.379Z,23.74
2023-06-30T02:06:09.697Z,23.32
2023-06-30T02:08:38.558Z,23.45
2023-06-30T02:11:07.409Z,23.47
2023-06-30T02:13:36.002Z,23.58
2023-06-30T02:16:05.139Z,23.57
2023-06-30T02:18:33.916Z,23.26
2023-06-30T02:21:02.902Z,23.03
2023-06-30T02:23:31.998Z,23.02
2023-06-30T02:26:03.776Z,22.80
2023-06-30T02:28:32.677Z,22.79
2023-06-30T02:31:01.663Z,22.74
2023-06-30T02:33:30.556Z,22.71
2023-06-30T02:35:59.537Z,22.73
2023-06-30T02:38:34.557Z,22.50
2023-06-30T02:41:03.220Z,21.89
2023-06-30T02:43:31.988Z,22.14
2023-06-30T02:46:01.020Z,22.13
2023-06-30T02:48:31.072Z,22.22
2023-06-30T02:51:02.456Z,22.33
2023-06-30T02:53:31.833Z,22.20
2023-06-30T02:56:00.433Z,22.41
2023-06-30T02:58:30.184Z,22.30
2023-06-30T03:00:59.041Z,22.30
2023-06-30T03:03:28.070Z,21.55
2023-06-30T03:05:57.999Z,22.17
2023-06-30T03:08:28.540Z,22.50
2023-06-30T03:10:57.575Z,22.24
2023-06-30T03:13:27.640Z,22.30
2023-06-30T03:15:56.531Z,21.93
2023-06-30T03:18:25.911Z,21.68
2023-06-30T03:20:54.805Z,21.79
2023-06-30T03:23:23.999Z,21.81
2023-06-30T03:25:52.917Z,21.66
2023-06-30T03:28:22.700Z,21.34
2023-06-30T03:30:52.379Z,21.84
2023-06-30T03:33:23.555Z,21.83
2023-06-30T03:35:54.081Z,21.81
2023-06-30T03:38:23.223Z,22.06
2023-06-30T03:40:55.216Z,22.08
2023-06-30T03:43:25.784Z,21.96
2023-06-30T03:45:55.454Z,21.65
2023-06-30T03:48:25.216Z,21.37
2023-06-30T03:50:57.492Z,21.16
2023-06-30T03:53:26.314Z,21.02
2023-06-30T03:55:55.241Z,21.18
2023-06-30T03:58:24.200Z,20.93
2023-06-30T04:00:53.138Z,20.59
2023-06-30T04:03:24.185Z,20.54
2023-06-30T04:05:55.130Z,21.19
2023-06-30T04:08:24.148Z,21.13
2023-06-30T04:10:53.661Z,21.35
2023-06-30T04:13:23.238Z,21.64
2023-06-30T04:15:52.223Z,21.81
2023-06-30T04:18:21.218Z,21.62
2023-06-30T04:20:50.049Z,21.59
2023-06-30T04:23:19.026Z,21.62
2023-06-30T04:25:50.459Z,21.41
2023-06-30T04:28:19.489Z,22.02
2023-06-30T04:33:18.079Z,22.57
2023-06-30T04:35:47.376Z,22.19
2023-06-30T04:38:16.744Z,22.08
2023-06-30T04:40:45.702Z,22.02
2023-06-30T04:43:15.066Z,21.77
2023-06-30T04:45:45.046Z,21.42
2023-06-30T04:48:14.138Z,20.98
2023-06-30T04:50:43.083Z,20.78
2023-06-30T04:53:12.223Z,20.78
2023-06-30T04:55:41.124Z,20.63
2023-06-30T04:58:10.026Z,20.54
2023-06-30T05:00:39.028Z,20.53
2023-06-30T05:03:07.924Z,20.52
2023-06-30T05:05:36.958Z,20.60
2023-06-30T05:08:06.024Z,20.57
2023-06-30T05:10:37.159Z,20.62
2023-06-30T05:13:08.541Z,20.52
2023-06-30T05:15:37.609Z,20.55
2023-06-30T05:18:07.764Z,20.47
2023-06-30T05:20:38.610Z,20.48
2023-06-30T05:23:07.786Z,20.44
2023-06-30T05:25:36.858Z,20.26
2023-06-30T05:28:05.987Z,20.20
2023-06-30T05:30:35.001Z,20.23
2023-06-30T05:33:06.730Z,20.27
2023-06-30T05:35:35.826Z,20.29
2023-06-30T05:38:04.993Z,20.40
2023-06-30T05:40:33.968Z,20.41
2023-06-30T05:43:02.951Z,20.35
2023-06-30T05:45:31.859Z,20.65
2023-06-30T05:48:00.779Z,21.35
2023-06-30T05:50:30.962Z,22.12
2023-06-30T05:52:59.916Z,22.34
2023-06-30T05:55:29.028Z,22.19
2023-06-30T05:57:57.804Z,21.89
2023-06-30T06:00:27.146Z,21.47
2023-06-30T06:02:56.752Z,21.43
2023-06-30T06:05:26.178Z,21.18
2023-06-30T06:07:55.125Z,21.44
2023-06-30T06:10:24.072Z,21.42
2023-06-30T06:12:56.332Z,21.80
2023-06-30T06:15:25.202Z,22.30
2023-06-30T06:17:54.228Z,22.63
2023-06-30T06:20:23.201Z,23.16
2023-06-30T06:22:51.961Z,23.02
2023-06-30T06:25:20.975Z,22.75
2023-06-30T06:27:49.860Z,22.55
2023-06-30T06:30:18.718Z,22.40
2023-06-30T06:32:47.584Z,22.18
2023-06-30T06:35:17.032Z,22.42
2023-06-30T06:37:45.830Z,22.62
2023-06-30T06:40:15.825Z,22.53
2023-06-30T06:42:44.957Z,22.30
2023-06-30T06:45:14.372Z,22.60
2023-06-30T06:48:21.350Z,22.68
2023-06-30T06:50:55.082Z,22.39
2023-06-30T06:53:31.575Z,22.06
2023-06-30T06:56:00.791Z,21.89
2023-06-30T06:58:34.872Z,21.93
2023-06-30T07:01:03.868Z,22.09
2023-06-30T07:03:33.096Z,22.38
2023-06-30T07:06:02.492Z,22.84
2023-06-30T07:08:36.858Z,22.86
2023-06-30T07:11:05.983Z,23.17
2023-06-30T07:13:35.589Z,23.14
2023-06-30T07:16:05.105Z,22.62
2023-06-30T07:18:34.743Z,23.00
2023-06-30T07:21:04.137Z,22.69
2023-06-30T07:23:33.197Z,22.42
2023-06-30T07:26:02.741Z,22.51
2023-06-30T07:28:33.184Z,22.39
2023-06-30T07:31:02.482Z,22.42
2023-06-30T07:33:31.549Z,22.36
2023-06-30T07:36:00.682Z,22.21
2023-06-30T07:38:29.597Z,22.15
2023-06-30T07:40:59.203Z,22.39
2023-06-30T07:43:28.725Z,22.73
2023-06-30T07:45:58.429Z,23.05
2023-06-30T07:48:28.202Z,23.46
2023-06-30T07:51:08.583Z,23.52
2023-06-30T07:53:40.207Z,23.62
2023-06-30T07:56:09.267Z,23.41
2023-06-30T07:58:38.649Z,23.31
2023-06-30T08:01:07.786Z,23.02
2023-06-30T08:03:36.950Z,23.09
2023-06-30T08:06:06.380Z,22.87
2023-06-30T08:08:35.771Z,22.48
2023-06-30T08:11:05.109Z,22.18
2023-06-30T08:13:34.108Z,21.95
2023-06-30T08:16:03.901Z,22.21
2023-06-30T08:18:34.371Z,22.56
2023-06-30T08:21:05.113Z,22.47
2023-06-30T08:23:33.920Z,22.17
2023-06-30T08:26:02.989Z,21.98
2023-06-30T08:28:31.940Z,21.89
2023-06-30T08:31:00.927Z,22.13
2023-06-30T08:36:03.716Z,23.11
2023-06-30T08:38:32.532Z,23.51
2023-06-30T08:41:02.387Z,23.83
2023-06-30T08:43:35.167Z,23.76
2023-06-30T08:46:05.600Z,23.78
2023-06-30T08:48:35.788Z,23.21
2023-06-30T08:51:06.334Z,23.03
2023-06-30T08:53:36.036Z,23.39
2023-06-30T08:56:06.038Z,23.59
2023-06-30T08:58:35.299Z,23.59
2023-06-30T09:01:04.873Z,23.76
2023-06-30T09:03:34.317Z,23.25
2023-06-30T09:06:04.251Z,23.42
2023-06-30T09:08:46.168Z,23.52
2023-06-30T09:11:18.623Z,23.52
2023-06-30T09:13:49.697Z,23.20
2023-06-30T09:16:20.172Z,22.73
2023-06-30T09:18:50.383Z,22.61
2023-06-30T09:21:20.517Z,22.19
2023-06-30T09:23:54.009Z,22.26
2023-06-30T09:26:22.909Z,22.12
2023-06-30T09:28:56.843Z,22.51
2023-06-30T09:31:36.709Z,22.90
2023-06-30T09:34:15.661Z,22.94
2023-06-30T09:36:51.281Z,22.90
2023-06-30T09:39:20.797Z,22.79
2023-06-30T09:41:51.579Z,22.58
2023-06-30T09:44:22.189Z,22.37
2023-06-30T09:46:55.675Z,22.11
2023-06-30T09:49:29.012Z,21.90
2023-06-30T09:51:59.265Z,22.11
2023-06-30T09:54:43.713Z,22.48
2023-06-30T09:57:13.965Z,22.57
2023-06-30T09:59:42.878Z,23.06
2023-06-30T10:02:12.183Z,22.82
2023-06-30T10:04:41.618Z,22.68
2023-06-30T10:07:13.232Z,23.00
2023-06-30T10:09:47.309Z,23.03
2023-06-30T10:12:23.760Z,22.69
2023-06-30T10:14:54.081Z,22.42
2023-06-30T10:17:23.130Z,22.22
2023-06-30T10:19:52.960Z,22.22
2023-06-30T10:22:24.043Z,22.02
2023-06-30T10:24:56.513Z,21.94
2023-06-30T10:27:26.071Z,21.85
2023-06-30T10:29:56.372Z,21.74
2023-06-30T10:32:25.454Z,21.56
2023-06-30T10:34:55.400Z,21.30
2023-06-30T10:37:24.779Z,21.46
2023-06-30T10:39:54.111Z,21.43
2023-06-30T10:42:22.885Z,21.40
2023-06-30T10:44:51.700Z,21.47
2023-06-30T10:47:25.184Z,21.41
2023-06-30T10:49:55.972Z,21.49
2023-06-30T10:52:29.916Z,21.60
2023-06-30T10:55:07.970Z,21.78
2023-06-30T10:57:41.420Z,22.01
2023-06-30T11:00:16.487Z,22.07
2023-06-30T11:03:01.600Z,22.07
2023-06-30T11:05:33.701Z,21.72
2023-06-30T11:08:11.242Z,21.34
2023-06-30T11:10:47.991Z,21.44
2023-06-30T11:13:17.044Z,21.67
2023-06-30T11:15:53.338Z,21.78
2023-06-30T11:18:24.791Z,21.87
2023-06-30T11:21:04.995Z,21.79
2023-06-30T11:23:44.752Z,21.85
2023-06-30T11:26:21.452Z,21.38
2023-06-30T11:28:50.746Z,21.50
2023-06-30T11:31:20.161Z,21.31
2023-06-30T11:33:49.205Z,21.27
2023-06-30T11:36:19.438Z,21.58
2023-06-30T11:38:49.984Z,21.62
2023-06-30T11:41:25.362Z,21.41
2023-06-30T11:43:57.362Z,21.39
2023-06-30T11:46:26.436Z,21.51
2023-06-30T11:48:55.590Z,21.35
2023-06-30T11:51:24.944Z,21.48
2023-06-30T11:53:54.589Z,21.52
2023-06-30T11:56:24.154Z,21.53
2023-06-30T11:58:54.393Z,21.66
2023-06-30T12:01:23.359Z,21.58
2023-06-30T12:04:24.845Z,21.55
2023-06-30T12:06:57.530Z,21.39
2023-06-30T12:09:27.589Z,21.25
2023-06-30T12:12:02.358Z,21.29
2023-06-30T12:14:31.551Z,21.25
2023-06-30T12:17:00.942Z,21.37
2023-06-30T12:19:30.098Z,21.33
2023-06-30T12:22:05.338Z,21.17
2023-06-30T12:24:36.228Z,20.98
2023-06-30T12:27:07.526Z,20.46
2023-06-30T12:29:38.077Z,20.55
2023-06-30T12:32:19.250Z,20.69
2023-06-30T12:34:48.385Z,20.62
2023-06-30T12:37:21.693Z,20.58
2023-06-30T12:39:50.312Z,20.56
2023-06-30T12:42:20.161Z,20.28
2023-06-30T12:44:49.206Z,20.53
2023-06-30T12:47:18.132Z,20.71
2023-06-30T12:49:47.009Z,20.47
2023-06-30T12:52:17.654Z,20.93
2023-06-30T12:54:47.548Z,20.57
2023-06-30T12:57:16.219Z,20.88
2023-06-30T12:59:45.592Z,20.64
2023-06-30T13:02:15.155Z,20.56
2023-06-30T13:04:43.839Z,20.60
2023-06-30T13:07:14.974Z,20.65
2023-06-30T13:09:44.248Z,20.66
2023-06-30T13:12:13.354Z,20.58
2023-06-30T13:14:45.108Z,20.51
2023-06-30T13:17:16.899Z,20.06
2023-06-30T13:19:46.547Z,20.25
2023-06-30T13:22:17.016Z,19.99
2023-06-30T13:24:46.543Z,20.31
2023-06-30T13:27:16.068Z,20.15
2023-06-30T13:29:51.987Z,20.06
2023-06-30T13:32:21.533Z,20.09
2023-06-30T13:34:50.783Z,20.08
2023-06-30T13:37:20.257Z,20.03
2023-06-30T13:39:49.693Z,19.87
2023-06-30T13:42:18.609Z,19.80
2023-06-30T13:44:47.909Z,19.80
2023-06-30T13:47:16.754Z,19.63
2023-06-30T13:49:45.702Z,19.59
2023-06-30T13:52:17.660Z,19.20
2023-06-30T13:54:46.502Z,19.46
2023-06-30T13:57:15.437Z,19.47
2023-06-30T13:59:44.716Z,19.57
2023-06-30T14:02:14.154Z,19.61
2023-06-30T14:04:43.233Z,19.76
2023-06-30T14:07:14.248Z,19.69
2023-06-30T14:09:43.361Z,19.66
2023-06-30T14:12:12.378Z,19.72
2023-06-30T14:14:41.174Z,19.69
2023-06-30T14:17:10.207Z,19.49
2023-06-30T14:19:39.481Z,19.48
2023-06-30T14:22:11.126Z,19.58
2023-06-30T14:24:40.494Z,19.50
2023-06-30T14:27:09.902Z,19.52
2023-06-30T14:29:46.488Z,19.45
2023-06-30T14:32:15.303Z,19.38
2023-06-30T14:34:44.159Z,19.43
2023-06-30T14:37:13.137Z,19.22
2023-06-30T14:39:42.201Z,19.11
2023-06-30T14:42:22.917Z,19.26
2023-06-30T14:45:00.291Z,19.10
2023-06-30T14:47:30.016Z,18.98
2023-06-30T14:49:59.277Z,19.00
2023-06-30T14:52:28.171Z,19.05
2023-06-30T14:54:57.071Z,18.97
2023-06-30T14:57:25.879Z,18.87
2023-06-30T14:59:54.816Z,18.82
2023-06-30T15:02:25.888Z,18.72
2023-06-30T15:04:55.023Z,18.65
2023-06-30T15:07:24.069Z,18.59
2023-06-30T15:09:53.391Z,18.54
2023-06-30T15:12:22.199Z,18.58
2023-06-30T15:14:53.618Z,18.49
2023-06-30T15:17:25.950Z,18.40
2023-06-30T15:19:54.904Z,18.36
2023-06-30T15:22:23.966Z,18.16
2023-06-30T15:24:53.229Z,18.10
2023-06-30T15:27:22.562Z,18.04
2023-06-30T15:29:51.184Z,17.99
2023-06-30T15:32:20.501Z,17.93
2023-06-30T15:34:49.264Z,17.49
2023-06-30T15:37:18.757Z,17.75
2023-06-30T15:39:49.181Z,17.72
2023-06-30T15:42:18.439Z,17.68
2023-06-30T15:44:47.242Z,17.60
2023-06-30T15:47:16.558Z,17.49
2023-06-30T15:49:47.017Z,17.13
2023-06-30T15:52:15.811Z,17.33
2023-06-30T15:54:45.164Z,16.90
2023-06-30T15:57:16.827Z,17.15
2023-06-30T15:59:45.662Z,16.74
2023-06-30T16:02:14.648Z,16.93
2023-06-30T16:04:43.818Z,16.70
2023-06-30T16:07:12.864Z,16.70
2023-06-30T16:09:41.938Z,16.61
2023-06-30T16:12:11.916Z,16.11
2023-06-30T16:14:41.499Z,16.40
2023-06-30T16:17:10.966Z,16.24
2023-06-30T16:19:40.576Z,15.68
2023-06-30T16:22:10.508Z,16.00
2023-06-30T16:24:42.518Z,15.86
2023-06-30T16:27:13.420Z,15.78
2023-06-30T16:29:43.008Z,15.70
2023-06-30T16:32:12.097Z,15.17
2023-06-30T16:34:41.550Z,15.46
2023-06-30T16:37:10.838Z,15.37
2023-06-30T16:39:40.222Z,15.16
2023-06-30T16:42:09.723Z,15.24
2023-06-30T16:44:39.064Z,15.11
2023-06-30T16:47:08.543Z,14.85
2023-06-30T16:49:38.615Z,14.84
2023-06-30T16:52:08.106Z,14.70
2023-06-30T16:54:37.030Z,14.38
2023-06-30T16:57:06.751Z,14.61
2023-06-30T16:59:35.749Z,14.46
2023-06-30T17:02:07.375Z,14.42
2023-06-30T17:04:39.494Z,14.31
2023-06-30T17:07:10.368Z,14.34
2023-06-30T17:09:39.837Z,14.18
2023-06-30T17:12:09.324Z,13.85
2023-06-30T17:14:38.345Z,14.18
2023-06-30T17:17:07.854Z,13.94
2023-06-30T17:19:36.692Z,13.83
2023-06-30T17:22:05.474Z,13.83
2023-06-30T17:24:34.857Z,13.75
2023-06-30T17:27:03.621Z,13.64
2023-06-30T17:29:32.605Z,13.51
2023-06-30T17:32:04.202Z,13.13
2023-06-30T17:34:32.788Z,13.44
2023-06-30T17:37:03.357Z,13.29
2023-06-30T17:39:34.076Z,13.24
2023-06-30T17:42:02.960Z,12.98
2023-06-30T17:44:32.427Z,13.13
2023-06-30T17:47:02.358Z,13.19
2023-06-30T17:49:34.997Z,13.05
2023-06-30T17:52:06.436Z,13.00
2023-06-30T17:54:38.465Z,12.98
2023-06-30T17:57:08.769Z,12.90
2023-06-30T17:59:37.556Z,12.83
2023-06-30T18:02:06.687Z,12.90
2023-06-30T18:04:38.018Z,12.87
2023-06-30T18:07:08.972Z,12.86
2023-06-30T18:09:40.660Z,12.73
2023-06-30T18:12:11.696Z,12.75
2023-06-30T18:14:42.742Z,12.56
2023-06-30T18:17:11.983Z,12.62
2023-06-30T18:19:44.331Z,12.58
2023-06-30T18:22:15.082Z,12.43
2023-06-30T18:24:43.658Z,12.53
2023-06-30T18:27:12.901Z,12.42
2023-06-30T18:29:43.845Z,12.51
2023-06-30T18:32:12.856Z,12.49
2023-06-30T18:34:46.176Z,12.12
2023-06-30T18:37:15.800Z,12.06
2023-06-30T18:39:44.908Z,12.04
2023-06-30T18:42:13.787Z,12.44
2023-06-30T18:44:43.762Z,12.30
2023-06-30T18:47:12.389Z,12.26
2023-06-30T18:49:41.174Z,12.12
2023-06-30T18:52:09.755Z,12.24
2023-06-30T18:54:38.695Z,12.36
2023-06-30T18:57:07.677Z,12.28
2023-06-30T18:59:36.249Z,12.32
2023-06-30T19:02:05.310Z,12.20
2023-06-30T19:04:34.440Z,12.27
2023-06-30T19:07:04.059Z,12.15
2023-06-30T19:09:35.624Z,12.19
2023-06-30T19:12:05.326Z,12.20
2023-06-30T19:14:35.942Z,12.32
2023-06-30T19:17:06.025Z,12.34
2023-06-30T19:19:35.183Z,12.27
2023-06-30T19:22:04.165Z,12.40
2023-06-30T19:24:33.880Z,12.31
2023-06-30T19:27:02.642Z,12.35
2023-06-30T19:29:32.585Z,12.32
2023-06-30T19:32:01.740Z,12.34
2023-06-30T19:34:30.581Z,12.38
2023-06-30T19:37:00.991Z,12.24
2023-06-30T19:39:35.978Z,12.29
2023-06-30T19:42:05.701Z,12.24
2023-06-30T19:44:34.562Z,12.11
2023-06-30T19:47:03.886Z,12.11
2023-06-30T19:49:32.741Z,12.04
2023-06-30T19:52:02.041Z,11.88
2023-06-30T19:54:31.264Z,11.96
2023-06-30T19:57:00.162Z,11.82
2023-06-30T19:59:29.210Z,11.77
2023-06-30T20:01:59.931Z,11.85
2023-06-30T20:04:29.542Z,11.77
2023-06-30T20:06:58.425Z,11.72
2023-06-30T20:09:27.120Z,11.67
2023-06-30T20:11:56.181Z,11.78
2023-06-30T20:14:24.868Z,11.54
2023-06-30T20:16:53.902Z,11.56
2023-06-30T20:19:22.945Z,11.59
2023-06-30T20:21:51.950Z,11.53
2023-06-30T20:24:20.899Z,11.15
2023-06-30T20:26:49.581Z,11.49
2023-06-30T20:29:18.460Z,11.32
2023-06-30T20:31:47.350Z,11.32
2023-06-30T20:34:16.224Z,11.26
2023-06-30T20:36:45.204Z,11.27
2023-06-30T20:39:13.928Z,11.13
2023-06-30T20:41:42.787Z,10.97
2023-06-30T20:44:15.050Z,11.16
2023-06-30T20:46:43.962Z,11.07
2023-06-30T20:49:12.950Z,11.11
2023-06-30T20:51:41.944Z,11.11
2023-06-30T20:54:10.783Z,10.90
2023-06-30T20:56:39.732Z,10.86
2023-06-30T20:59:08.403Z,10.81
2023-06-30T21:01:37.430Z,10.84
2023-06-30T21:04:06.504Z,10.92
2023-06-30T21:06:36.814Z,10.48
2023-06-30T21:09:06.963Z,10.72
2023-06-30T21:11:35.907Z,10.77
2023-06-30T21:14:04.907Z,10.84
2023-06-30T21:16:33.789Z,10.87
2023-06-30T21:19:02.717Z,10.79
2023-06-30T21:21:32.344Z,10.86
2023-06-30T21:24:01.351Z,10.95
2023-06-30T21:26:30.156Z,10.78
2023-06-30T21:28:58.922Z,10.41
2023-06-30T21:31:27.705Z,10.67
2023-06-30T21:33:56.683Z,10.68
2023-06-30T21:36:25.457Z,10.64
2023-06-30T21:38:54.391Z,10.61
2023-06-30T21:41:23.660Z,10.53
2023-06-30T21:43:52.507Z,9.88
2023-06-30T21:46:21.495Z,10.53
2023-06-30T21:48:54.527Z,10.61
2023-06-30T21:51:23.464Z,10.50
2023-06-30T21:53:53.283Z,10.61
2023-06-30T21:56:22.285Z,10.50
2023-06-30T21:58:52.564Z,10.42
2023-06-30T22:01:28.766Z,10.45
2023-06-30T22:04:05.482Z,10.41
2023-06-30T22:06:34.615Z,10.39
2023-06-30T22:09:11.254Z,10.53
2023-06-30T22:11:44.951Z,10.13
2023-06-30T22:14:14.240Z,10.31
2023-06-30T22:16:43.797Z,10.09
2023-06-30T22:19:13.168Z,10.37
2023-06-30T22:21:42.766Z,10.47
2023-06-30T22:24:11.505Z,10.48
2023-06-30T22:26:40.256Z,10.36
2023-06-30T22:29:09.205Z,10.42
2023-06-30T22:31:38.300Z,10.47
2023-06-30T22:34:07.639Z,10.41
2023-06-30T22:36:39.294Z,10.40
2023-06-30T22:39:08.294Z,10.41
2023-06-30T22:41:37.019Z,10.40
2023-06-30T22:44:05.814Z,10.39
2023-06-30T22:46:34.620Z,10.43
2023-06-30T22:49:05.264Z,10.40
2023-06-30T22:51:34.175Z,10.49
2023-06-30T22:54:02.957Z,10.43
2023-06-30T22:56:31.647Z,10.51
2023-06-30T22:59:00.263Z,10.60
2023-06-30T23:01:29.145Z,10.70
2023-06-30T23:04:00.783Z,11.03
2023-06-30T23:06:36.072Z,11.41
2023-06-30T23:09:08.016Z,12.00
2023-06-30T23:11:37.804Z,12.57
2023-06-30T23:14:07.073Z,12.75
2023-06-30T23:16:39.144Z,13.37
2023-06-30T23:19:09.385Z,13.53
2023-06-30T23:21:39.324Z,13.42
2023-06-30T23:24:12.222Z,13.63
2023-06-30T23:26:42.833Z,13.75
2023-06-30T23:29:11.598Z,13.92
2023-06-30T23:31:40.903Z,14.06
2023-06-30T23:34:09.779Z,14.64
2023-06-30T23:36:38.865Z,14.91
2023-06-30T23:39:07.583Z,14.76
2023-06-30T23:41:36.390Z,14.78
2023-06-30T23:44:05.281Z,14.64
2023-06-30T23:46:33.961Z,14.84
2023-06-30T23:49:02.754Z,15.08
2023-06-30T23:51:31.672Z,15.35
2023-06-30T23:54:00.495Z,15.38
2023-06-30T23:56:29.134Z,15.45
2023-06-30T23:58:58.664Z,15.44
